Time;durP1;ratioP1;P1;durP2;ratioP2;P2;SDS_P1;SDS_P2;PMS_P1;PMS_P2;Temp;Humidity;BMP_temperature;BMP_pressure;BME280_temperature;BME280_humidity;BME280_pressure;Samples;Min_cycle;Max_cycle;Signal;HPM_P1;HPM_P2
2022/05/07 00:00:47;;;;;;;1.70;0.80;;;15.00;97.80;;;;;;5095136;28;20126;-69
2022/05/07 00:03:14;;;;;;;1.20;0.47;;;14.80;97.10;;;;;;5089536;28;20024;-66
2022/05/07 00:05:41;;;;;;;0.82;0.40;;;14.90;97.40;;;;;;5094779;28;20043;-65
2022/05/07 00:08:08;;;;;;;1.55;0.70;;;15.00;97.40;;;;;;5095835;28;20020;-67
2022/05/07 00:10:36;;;;;;;3.15;1.92;;;15.10;98.00;;;;;;5083213;28;20478;-65
2022/05/07 00:13:04;;;;;;;2.55;1.15;;;15.00;97.50;;;;;;5089873;28;20450;-68
2022/05/07 00:15:32;;;;;;;2.97;1.23;;;15.00;97.20;;;;;;5092059;28;20111;-65
2022/05/07 00:18:03;;;;;;;2.30;0.75;;;15.00;97.30;;;;;;5097124;28;20061;-68
2022/05/07 00:20:32;;;;;;;1.90;0.60;;;15.10;96.80;;;;;;5085455;28;20032;-70
2022/05/07 00:22:59;;;;;;;2.35;1.25;;;15.30;96.70;;;;;;5090930;28;20103;-68
2022/05/07 00:25:27;;;;;;;2.00;0.90;;;15.50;96.00;;;;;;5086171;28;20055;-73
2022/05/07 00:27:54;;;;;;;1.80;0.60;;;15.60;96.00;;;;;;5090633;28;20035;-65
2022/05/07 00:30:21;;;;;;;0.95;0.73;;;15.70;95.30;;;;;;5089565;28;20047;-66
2022/05/07 00:32:48;;;;;;;1.10;0.60;;;15.80;95.40;;;;;;5092642;28;20067;-65
2022/05/07 00:35:16;;;;;;;1.95;0.50;;;15.90;96.10;;;;;;5086877;28;20095;-66
2022/05/07 00:37:43;;;;;;;1.73;0.50;;;15.90;96.30;;;;;;5080973;28;20044;-67
2022/05/07 00:40:10;;;;;;;1.45;0.50;;;15.90;96.50;;;;;;5088502;28;20067;-67
2022/05/07 00:42:38;;;;;;;1.23;0.60;;;16.00;95.90;;;;;;5084961;28;20051;-68
2022/05/07 00:45:05;;;;;;;1.33;0.63;;;16.20;95.20;;;;;;5090243;28;20131;-67
2022/05/07 00:47:33;;;;;;;0.77;0.43;;;16.30;95.30;;;;;;5086187;28;20020;-67
2022/05/07 00:52:47;;;;;;;1.02;0.60;;;16.70;94.90;;;;;;5088167;28;20509;-67
2022/05/07 00:55:16;;;;;;;2.38;2.00;;;16.90;93.70;;;;;;5084776;28;20030;-70
2022/05/07 00:57:43;;;;;;;4.78;1.10;;;17.00;93.70;;;;;;5084146;28;20127;-66
2022/05/07 01:00:11;;;;;;;2.25;1.45;;;17.20;94.60;;;;;;5085448;28;20033;-64
2022/05/07 01:02:39;;;;;;;1.42;0.70;;;17.50;94.70;;;;;;5082212;28;20467;-64
2022/05/07 01:05:07;;;;;;;2.13;1.60;;;17.70;94.40;;;;;;5066302;28;20032;-67
2022/05/07 01:07:34;;;;;;;2.03;1.17;;;17.90;93.50;;;;;;5086364;28;20059;-66
2022/05/07 01:10:03;;;;;;;1.50;0.70;;;18.00;91.90;;;;;;5086271;28;20174;-69
2022/05/07 01:12:30;;;;;;;2.53;1.30;;;18.00;92.80;;;;;;5084790;28;20027;-66
2022/05/07 01:15:00;;;;;;;3.72;2.75;;;18.00;92.50;;;;;;5085077;28;20398;-66
2022/05/07 01:17:30;;;;;;;3.15;2.38;;;18.10;92.70;;;;;;5089923;28;20031;-65
2022/05/07 01:19:57;;;;;;;2.38;1.02;;;18.30;92.00;;;;;;5086621;28;20587;-66
2022/05/07 01:22:26;;;;;;;1.15;0.57;;;18.30;92.50;;;;;;5091665;28;20028;-66
2022/05/07 01:24:53;;;;;;;0.80;0.50;;;18.40;91.90;;;;;;5087060;28;20020;-72
2022/05/07 01:27:20;;;;;;;0.98;0.40;;;18.40;91.60;;;;;;5093593;28;20488;-73
2022/05/07 01:29:47;;;;;;;2.30;0.40;;;18.40;91.90;;;;;;5083914;28;20081;-71
2022/05/07 01:32:14;;;;;;;1.42;0.65;;;18.70;90.60;;;;;;5089318;28;20535;-69
2022/05/07 01:34:41;;;;;;;2.50;0.52;;;18.80;90.30;;;;;;5086633;28;20095;-72
2022/05/07 01:37:08;;;;;;;2.10;1.48;;;18.70;91.40;;;;;;5087702;28;20044;-72
2022/05/07 01:39:35;;;;;;;2.13;1.52;;;18.90;91.10;;;;;;5086727;28;20031;-68
2022/05/07 01:42:02;;;;;;;1.00;0.60;;;18.80;91.20;;;;;;5094051;28;20016;-70
2022/05/07 01:44:29;;;;;;;0.77;0.50;;;18.90;90.10;;;;;;5086018;28;20020;-73
2022/05/07 01:49:41;;;;;;;1.92;0.60;;;18.90;89.50;;;;;;5081458;28;20039;-75
2022/05/07 01:52:08;;;;;;;0.82;0.47;;;18.80;90.50;;;;;;5081938;28;20053;-75
2022/05/07 01:54:35;;;;;;;2.05;0.30;;;18.90;90.00;;;;;;5085409;28;20020;-75
2022/05/07 01:57:02;;;;;;;0.77;0.57;;;18.90;89.70;;;;;;5087003;28;20440;-73
2022/05/07 01:59:29;;;;;;;1.42;0.47;;;18.80;88.40;;;;;;5087981;28;20464;-69
2022/05/07 02:01:56;;;;;;;2.08;1.45;;;19.10;88.30;;;;;;5086540;28;20023;-70
2022/05/07 02:04:23;;;;;;;3.97;1.67;;;19.30;90.40;;;;;;5077210;28;20111;-74
2022/05/07 02:06:50;;;;;;;2.25;1.10;;;19.60;90.20;;;;;;5093172;28;20106;-72
2022/05/07 02:09:18;;;;;;;2.42;0.90;;;19.90;88.70;;;;;;5083327;28;20069;-71
2022/05/07 02:11:45;;;;;;;2.90;0.68;;;19.90;88.00;;;;;;5079493;28;20270;-68
2022/05/07 02:14:12;;;;;;;1.35;0.77;;;20.00;92.70;;;;;;5098568;28;20028;-66
2022/05/07 02:16:39;;;;;;;3.45;0.95;;;20.30;92.20;;;;;;5088586;28;20049;-69
2022/05/07 02:19:06;;;;;;;1.73;0.70;;;20.30;85.30;;;;;;5083916;28;20077;-67
2022/05/07 02:21:33;;;;;;;1.95;1.02;;;20.20;87.20;;;;;;5089724;28;20019;-69
2022/05/07 02:24:00;;;;;;;7.25;2.40;;;20.20;88.80;;;;;;5091569;28;20490;-70
2022/05/07 02:26:27;;;;;;;1.02;0.90;;;20.40;90.40;;;;;;5082606;28;20032;-66
2022/05/07 02:28:54;;;;;;;0.90;0.40;;;20.60;89.20;;;;;;5084360;28;20024;-71
2022/05/07 02:31:21;;;;;;;1.27;0.43;;;20.70;82.40;;;;;;5084667;28;20028;-64
2022/05/07 02:33:48;;;;;;;1.10;0.50;;;20.40;83.00;;;;;;5090979;28;20020;-69
2022/05/07 02:36:15;;;;;;;0.73;0.55;;;20.20;84.00;;;;;;5083927;28;20641;-65
2022/05/07 02:38:42;;;;;;;2.75;0.95;;;20.30;82.30;;;;;;5083987;28;20076;-65
2022/05/07 02:43:54;;;;;;;2.65;0.88;;;20.70;81.40;;;;;;5092844;28;20050;-65
2022/05/07 02:46:22;;;;;;;0.57;0.40;;;20.80;81.90;;;;;;5091701;28;20032;-71
2022/05/07 02:48:49;;;;;;;1.92;0.80;;;20.70;81.20;;;;;;5084673;28;20032;-64
2022/05/07 02:51:17;;;;;;;3.85;2.13;;;20.90;82.60;;;;;;5086435;28;20030;-66
2022/05/07 02:53:44;;;;;;;0.60;0.50;;;21.00;83.60;;;;;;5082989;28;20097;-70
2022/05/07 02:56:11;;;;;;;4.25;0.60;;;21.20;80.40;;;;;;5082382;28;20385;-63
2022/05/07 02:58:38;;;;;;;3.35;0.50;;;21.30;82.60;;;;;;5093174;28;20067;-64
2022/05/07 03:01:05;;;;;;;1.83;0.63;;;21.40;80.40;;;;;;5091205;28;20608;-66
2022/05/07 03:03:32;;;;;;;2.58;0.80;;;21.40;82.70;;;;;;5074823;28;20036;-64
2022/05/07 03:05:59;;;;;;;1.55;0.40;;;21.60;82.60;;;;;;5080728;28;20035;-64
2022/05/07 03:08:26;;;;;;;0.30;0.30;;;21.80;77.10;;;;;;4384507;28;9999940;-67
2022/05/07 03:10:53;;;;;;;0.52;0.45;;;21.40;76.50;;;;;;5093625;28;20363;-68
2022/05/07 03:13:20;;;;;;;3.20;0.77;;;21.40;79.40;;;;;;5080219;28;20054;-69
2022/05/07 03:15:47;;;;;;;0.40;0.32;;;21.70;79.00;;;;;;5088129;28;20092;-65
2022/05/07 03:18:14;;;;;;;2.00;0.52;;;21.70;78.60;;;;;;5087921;28;20043;-65
2022/05/07 03:20:41;;;;;;;3.03;0.57;;;21.80;78.60;;;;;;5079179;28;20422;-65
2022/05/07 03:23:08;;;;;;;0.65;0.30;;;21.60;76.00;;;;;;5085019;28;20872;-67
2022/05/07 03:25:35;;;;;;;2.50;0.38;;;21.10;72.40;;;;;;5083183;28;20492;-67
2022/05/07 03:28:02;;;;;;;0.90;0.28;;;21.00;73.40;;;;;;5083502;28;20024;-65
2022/05/07 03:30:29;;;;;;;0.85;0.22;;;21.00;71.00;;;;;;5080611;28;20038;-67
2022/05/07 03:32:56;;;;;;;1.42;0.20;;;20.90;73.00;;;;;;5087478;28;20015;-65
2022/05/07 03:35:23;;;;;;;0.52;0.30;;;21.00;71.50;;;;;;5087544;28;20480;-70
2022/05/07 03:37:50;;;;;;;0.35;0.22;;;21.00;70.40;;;;;;5092072;28;20051;-68
2022/05/07 03:40:17;;;;;;;2.60;0.20;;;21.20;72.30;;;;;;5088507;28;20028;-65
2022/05/07 03:42:45;;;;;;;0.60;0.30;;;21.20;72.90;;;;;;5096928;28;20032;-65
2022/05/07 03:45:11;;;;;;;2.35;0.32;;;21.20;71.50;;;;;;5088596;28;20050;-68
2022/05/07 03:47:41;;;;;;;0.73;0.20;;;21.30;70.40;;;;;;5088584;28;20070;-69
2022/05/07 03:50:09;;;;;;;1.45;0.13;;;21.30;72.50;;;;;;5097303;28;20230;-70
2022/05/07 03:55:21;;;;;;;1.58;0.30;;;21.00;69.50;;;;;;5088200;28;20553;-68
2022/05/07 03:57:48;;;;;;;0.40;0.20;;;21.10;69.10;;;;;;5077770;28;20037;-68
2022/05/07 04:00:15;;;;;;;0.30;0.20;;;21.10;69.20;;;;;;5088193;28;20073;-67
2022/05/07 04:02:42;;;;;;;0.73;0.17;;;21.00;68.70;;;;;;5082952;28;20775;-70
2022/05/07 04:05:09;;;;;;;0.88;0.30;;;21.10;66.90;;;;;;5074483;28;20305;-67
2022/05/07 04:07:37;;;;;;;0.10;0.10;;;20.90;67.00;;;;;;5090796;28;20062;-68
2022/05/07 04:10:05;;;;;;;1.08;0.28;;;21.00;66.50;;;;;;5096461;28;20485;-65
2022/05/07 04:12:32;;;;;;;0.52;0.35;;;20.80;67.30;;;;;;5088041;28;20016;-70
2022/05/07 04:15:00;;;;;;;3.55;0.38;;;20.60;68.10;;;;;;5087057;28;20062;-64
2022/05/07 04:17:27;;;;;;;2.72;0.30;;;20.50;68.90;;;;;;5081545;28;20028;-66
2022/05/07 04:19:54;;;;;;;3.35;0.30;;;20.50;67.60;;;;;;5081612;28;20028;-73
2022/05/07 04:22:21;;;;;;;0.57;0.30;;;20.40;66.50;;;;;;5081421;28;20024;-69
2022/05/07 04:24:48;;;;;;;0.10;0.10;;;20.10;69.20;;;;;;5085911;28;20055;-70
2022/05/07 04:27:15;;;;;;;3.10;0.35;;;20.10;69.20;;;;;;5083247;28;20728;-70
2022/05/07 04:29:42;;;;;;;0.80;0.30;;;20.20;68.00;;;;;;5084308;28;20494;-69
2022/05/07 04:32:09;;;;;;;1.90;0.20;;;20.40;69.50;;;;;;5080620;28;20020;-68
2022/05/07 04:34:36;;;;;;;0.65;0.30;;;20.70;67.20;;;;;;5081691;28;20486;-70
2022/05/07 04:37:03;;;;;;;0.38;0.38;;;20.70;66.10;;;;;;5079244;28;20043;-73
2022/05/07 04:39:31;;;;;;;1.70;0.55;;;20.70;68.20;;;;;;5080696;28;20039;-69
2022/05/07 04:41:58;;;;;;;0.20;0.20;;;20.70;68.00;;;;;;5082905;28;20500;-70
2022/05/07 04:44:25;;;;;;;1.55;0.22;;;20.60;67.20;;;;;;5082627;28;20028;-68
2022/05/07 04:46:52;;;;;;;0.47;0.30;;;20.40;64.80;;;;;;5084001;28;20432;-69
2022/05/07 04:49:21;;;;;;;0.40;0.13;;;20.20;66.50;;;;;;5081637;28;20474;-66
2022/05/07 04:51:50;;;;;;;0.20;0.20;;;20.10;66.40;;;;;;5083092;28;20024;-65
2022/05/07 04:54:21;;;;;;;0.93;0.25;;;20.00;66.90;;;;;;5065051;28;20361;-71
2022/05/07 04:56:49;;;;;;;1.17;0.43;;;20.00;67.80;;;;;;5081895;28;20047;-71
2022/05/07 04:59:17;;;;;;;0.52;0.20;;;20.00;68.00;;;;;;5081720;28;20089;-67
2022/05/07 05:01:45;;;;;;;0.80;0.10;;;20.10;68.70;;;;;;5081131;28;20019;-67
2022/05/07 05:04:13;;;;;;;0.75;0.20;;;20.00;68.40;;;;;;5080872;28;20478;-72
2022/05/07 05:06:40;;;;;;;0.13;0.10;;;20.10;67.70;;;;;;5065009;28;20482;-71
2022/05/07 05:09:08;;;;;;;0.57;0.20;;;20.00;67.30;;;;;;5081216;28;20031;-72
2022/05/07 05:11:37;;;;;;;0.17;0.13;;;20.10;68.20;;;;;;5081786;28;20183;-69
2022/05/07 05:15:01;;;;;;;0.45;0.20;;;20.20;67.50;;;;;;5082283;28;20024;-72
2022/05/07 05:16:52;;;;;;;0.80;0.45;;;20.30;66.70;;;;;;5081956;28;20984;-69
2022/05/07 05:19:19;;;;;;;0.28;0.20;;;20.50;68.50;;;;;;5081566;28;20020;-70
2022/05/07 05:21:47;;;;;;;0.80;0.20;;;20.60;68.30;;;;;;5079155;28;20024;-70
2022/05/07 05:24:14;;;;;;;0.90;0.30;;;20.60;66.60;;;;;;5080454;28;20024;-69
2022/05/07 05:26:41;;;;;;;0.40;0.28;;;20.60;66.00;;;;;;5080377;28;20031;-72
2022/05/07 05:29:07;;;;;;;0.93;0.25;;;20.70;67.40;;;;;;5064964;28;20028;-71
2022/05/07 05:31:35;;;;;;;0.43;0.30;;;20.70;65.90;;;;;;5080350;28;20075;-71
2022/05/07 05:34:02;;;;;;;0.98;0.30;;;20.60;67.60;;;;;;5082456;28;20027;-70
2022/05/07 05:36:30;;;;;;;1.67;0.68;;;20.50;67.20;;;;;;5081155;28;20016;-70
2022/05/07 05:38:57;;;;;;;2.92;0.70;;;20.60;67.20;;;;;;5082813;28;20075;-70
2022/05/07 05:41:24;;;;;;;1.85;0.55;;;20.90;68.20;;;;;;5081020;28;20091;-69
2022/05/07 05:43:51;;;;;;;3.00;0.40;;;20.80;66.30;;;;;;5080928;28;20040;-68
2022/05/07 05:46:18;;;;;;;1.50;0.60;;;21.00;66.50;;;;;;5080571;28;20043;-69
2022/05/07 05:48:45;;;;;;;2.80;0.35;;;20.90;66.20;;;;;;5080569;28;20086;-69
2022/05/07 05:51:12;;;;;;;1.23;0.60;;;20.90;67.70;;;;;;5080576;28;20107;-68
2022/05/07 05:53:39;;;;;;;2.28;0.30;;;20.70;64.90;;;;;;5081655;28;20024;-67
2022/05/07 05:56:06;;;;;;;4.32;0.50;;;20.30;65.50;;;;;;5080985;28;20375;-70
2022/05/07 05:58:33;;;;;;;5.75;0.57;;;19.90;66.50;;;;;;5079142;28;20047;-70
2022/05/07 06:01:06;;;;;;;1.48;0.30;;;19.50;68.20;;;;;;5081634;28;20433;-68
2022/05/07 06:03:34;;;;;;;3.28;0.20;;;19.30;68.20;;;;;;5076206;28;20035;-67
2022/05/07 06:06:01;;;;;;;0.82;0.25;;;19.40;67.70;;;;;;5082722;28;20028;-68
2022/05/07 06:08:28;;;;;;;0.40;0.40;;;19.60;68.40;;;;;;5081637;28;20028;-66
2022/05/07 06:10:57;;;;;;;1.08;0.52;;;19.90;69.10;;;;;;5082190;28;20435;-69
2022/05/07 06:13:25;;;;;;;1.65;0.40;;;20.00;68.30;;;;;;5080769;28;20056;-68
2022/05/07 06:15:53;;;;;;;1.05;0.30;;;20.10;66.90;;;;;;5080984;28;20039;-66
2022/05/07 06:18:20;;;;;;;0.10;0.10;;;19.80;67.00;;;;;;5079316;28;20016;-68
2022/05/07 06:20:49;;;;;;;0.40;0.30;;;19.60;66.50;;;;;;5082651;28;20437;-69
2022/05/07 06:23:16;;;;;;;0.70;0.52;;;19.40;67.50;;;;;;5078144;28;20069;-69
2022/05/07 06:28:29;;;;;;;1.38;0.60;;;19.40;69.00;;;;;;5082601;28;20070;-68
2022/05/07 06:30:56;;;;;;;3.75;0.65;;;19.50;68.00;;;;;;5081087;28;20423;-69
2022/05/07 06:33:23;;;;;;;1.77;0.43;;;19.60;67.90;;;;;;5079237;28;20026;-70
2022/05/07 06:35:50;;;;;;;2.80;0.40;;;19.30;67.70;;;;;;5082605;28;20069;-70
2022/05/07 06:38:17;;;;;;;0.52;0.38;;;19.20;69.40;;;;;;5082778;28;20068;-70
2022/05/07 06:40:44;;;;;;;0.20;0.17;;;19.10;69.70;;;;;;5081668;28;20142;-66
2022/05/07 06:43:11;;;;;;;0.65;0.30;;;18.80;70.00;;;;;;5080664;28;20024;-67
2022/05/07 06:45:38;;;;;;;2.00;0.40;;;18.60;69.30;;;;;;5080123;28;20036;-67
2022/05/07 06:48:08;;;;;;;0.70;0.65;;;18.30;69.60;;;;;;5083022;28;20024;-67
2022/05/07 06:50:35;;;;;;;0.55;0.38;;;18.10;69.20;;;;;;5080958;28;20024;-68
2022/05/07 06:53:02;;;;;;;0.93;0.40;;;18.00;69.10;;;;;;5077975;28;20386;-69
2022/05/07 06:55:32;;;;;;;0.47;0.40;;;18.00;69.40;;;;;;5077066;28;20538;-65
2022/05/07 06:57:59;;;;;;;0.30;0.25;;;17.80;69.40;;;;;;5079719;28;20192;-65
2022/05/07 07:00:26;;;;;;;3.00;0.50;;;17.60;69.40;;;;;;5077925;28;20104;-70
2022/05/07 07:02:53;;;;;;;2.28;0.50;;;17.40;70.10;;;;;;5078419;28;20024;-70
2022/05/07 07:05:21;;;;;;;3.22;0.50;;;16.90;70.90;;;;;;5081514;28;20028;-68
2022/05/07 07:07:48;;;;;;;0.75;0.40;;;16.70;72.00;;;;;;5082393;28;20047;-68
2022/05/07 07:10:15;;;;;;;0.60;0.40;;;16.40;72.80;;;;;;5082626;28;20020;-70
2022/05/07 07:12:42;;;;;;;0.80;0.35;;;16.20;73.80;;;;;;5083319;28;20312;-69
2022/05/07 07:15:09;;;;;;;0.38;0.25;;;16.00;74.40;;;;;;5083703;28;20112;-69
2022/05/07 07:17:36;;;;;;;1.80;0.50;;;15.80;75.40;;;;;;5079982;28;20020;-67
2022/05/07 07:20:04;;;;;;;1.40;0.32;;;15.70;75.70;;;;;;5084119;28;20024;-69
2022/05/07 07:22:30;;;;;;;0.80;0.40;;;15.60;76.20;;;;;;5084082;28;20028;-70
2022/05/07 07:24:57;;;;;;;1.20;0.47;;;15.50;77.20;;;;;;5065665;28;20438;-67
2022/05/07 07:27:24;;;;;;;1.25;0.60;;;15.40;77.00;;;;;;5078415;28;20127;-68
2022/05/07 07:29:52;;;;;;;2.40;0.57;;;15.30;77.10;;;;;;5062325;28;20479;-66
2022/05/07 07:32:19;;;;;;;2.90;0.70;;;15.30;77.70;;;;;;5079313;28;20028;-68
2022/05/07 07:34:46;;;;;;;0.85;0.60;;;15.20;77.70;;;;;;5080878;28;20028;-68
2022/05/07 07:37:13;;;;;;;1.45;1.00;;;15.10;78.00;;;;;;5079915;28;20324;-69
2022/05/07 07:39:40;;;;;;;0.68;0.50;;;15.10;78.40;;;;;;5081436;28;20386;-68
2022/05/07 07:42:07;;;;;;;1.90;1.00;;;14.90;78.30;;;;;;5077026;28;20111;-68
2022/05/07 07:44:34;;;;;;;2.22;1.23;;;14.80;78.60;;;;;;5076255;28;20028;-67
2022/05/07 07:49:47;;;;;;;1.90;1.35;;;14.60;79.30;;;;;;5078566;28;20031;-65
2022/05/07 07:52:15;;;;;;;2.60;1.63;;;14.40;80.50;;;;;;5081713;28;20075;-65
2022/05/07 07:54:42;;;;;;;3.03;1.30;;;14.20;81.00;;;;;;5082162;28;20032;-66
2022/05/07 07:57:10;;;;;;;2.55;1.20;;;14.30;80.90;;;;;;5081708;28;20569;-67
2022/05/07 07:59:37;;;;;;;4.20;1.58;;;14.20;82.10;;;;;;5074833;28;20024;-66
2022/05/07 08:02:04;;;;;;;5.32;2.83;;;14.20;81.40;;;;;;5076811;28;20028;-68
2022/05/07 08:04:31;;;;;;;2.80;1.70;;;14.10;82.80;;;;;;5081182;28;20634;-66
2022/05/07 08:12:28;;;;;;;3.95;1.80;;;13.60;84.10;;;;;;5076913;28;20573;-66
2022/05/07 08:14:55;;;;;;;7.80;5.38;;;13.50;85.30;;;;;;5080574;28;20111;-66
2022/05/07 08:17:22;;;;;;;3.70;2.13;;;13.50;85.30;;;;;;5081161;28;20045;-67
2022/05/07 08:19:49;;;;;;;6.55;4.13;;;13.50;84.90;;;;;;5079976;28;20028;-66
2022/05/07 08:22:16;;;;;;;2.42;1.30;;;13.50;85.10;;;;;;5077859;28;20300;-68
2022/05/07 08:24:43;;;;;;;2.25;1.17;;;13.40;85.50;;;;;;5080616;28;20047;-67
2022/05/07 08:27:09;;;;;;;2.80;2.10;;;13.30;86.00;;;;;;5077086;28;20959;-67
2022/05/07 08:29:36;;;;;;;4.20;2.80;;;13.30;86.20;;;;;;5062848;28;20480;-67
2022/05/07 08:32:04;;;;;;;4.03;2.90;;;13.20;86.60;;;;;;5077468;28;20365;-66
2022/05/07 08:34:30;;;;;;;4.35;2.40;;;13.20;86.90;;;;;;5078728;28;20023;-65
2022/05/07 08:36:57;;;;;;;2.95;2.42;;;13.10;87.20;;;;;;5079841;28;20027;-65
2022/05/07 08:39:27;;;;;;;2.55;1.58;;;13.10;87.80;;;;;;5081336;28;20070;-66
2022/05/07 08:41:56;;;;;;;3.40;2.10;;;13.00;87.30;;;;;;5074989;28;20128;-67
2022/05/07 08:44:24;;;;;;;3.28;2.28;;;13.00;89.20;;;;;;5080242;28;20024;-67
2022/05/07 08:46:51;;;;;;;2.17;1.65;;;13.00;88.80;;;;;;5076688;28;20545;-66
2022/05/07 08:49:18;;;;;;;5.00;2.35;;;12.90;89.20;;;;;;5078635;28;20060;-65
2022/05/07 08:51:47;;;;;;;5.32;3.22;;;12.80;89.80;;;;;;5074457;28;20032;-67
2022/05/07 08:54:15;;;;;;;3.10;1.98;;;12.80;89.80;;;;;;5076013;28;20024;-64
2022/05/07 08:56:42;;;;;;;3.15;1.58;;;12.70;89.90;;;;;;5056603;28;20028;-67
2022/05/07 08:59:09;;;;;;;2.50;1.83;;;12.70;90.10;;;;;;5077405;28;20372;-66
2022/05/07 09:01:36;;;;;;;2.70;1.60;;;12.70;90.10;;;;;;5075241;28;20031;-68
2022/05/07 09:04:12;;;;;;;4.32;2.88;;;12.70;90.10;;;;;;5077188;28;20134;-65
2022/05/07 09:06:40;;;;;;;3.85;2.75;;;12.80;90.00;;;;;;5077163;28;20073;-67
2022/05/07 09:09:08;;;;;;;3.58;2.10;;;12.80;89.60;;;;;;5076125;28;20031;-66
2022/05/07 09:11:42;;;;;;;3.35;1.80;;;12.90;90.30;;;;;;5072676;28;20035;-67
2022/05/07 09:14:10;;;;;;;3.70;2.42;;;12.90;89.90;;;;;;5075186;28;20036;-63
2022/05/07 09:16:41;;;;;;;4.25;1.90;;;12.80;90.10;;;;;;5076670;28;20055;-63
2022/05/07 09:19:27;;;;;;;4.93;2.42;;;12.80;90.20;;;;;;5076983;28;20037;-64
2022/05/07 09:22:08;;;;;;;3.28;2.20;;;12.80;90.20;;;;;;5081959;28;20032;-66
2022/05/07 09:24:35;;;;;;;2.90;1.70;;;12.80;90.30;;;;;;5081341;28;20519;-67
2022/05/07 09:27:04;;;;;;;3.28;1.60;;;12.70;90.40;;;;;;5075883;28;20032;-63
2022/05/07 09:29:32;;;;;;;2.60;1.45;;;12.70;90.70;;;;;;5070130;28;20028;-63
2022/05/07 09:32:11;;;;;;;3.90;2.30;;;12.80;90.70;;;;;;5077598;28;20016;-66
2022/05/07 09:37:39;;;;;;;3.08;1.83;;;12.80;90.90;;;;;;5077748;28;20520;-67
2022/05/07 09:40:08;;;;;;;3.10;2.22;;;13.00;90.90;;;;;;5076044;28;20024;-67
2022/05/07 09:42:35;;;;;;;3.80;1.40;;;13.10;90.80;;;;;;5074379;28;20051;-64
2022/05/07 09:45:03;;;;;;;2.72;1.55;;;13.00;90.90;;;;;;5078202;28;20103;-66
2022/05/07 09:47:34;;;;;;;2.92;1.50;;;12.90;91.30;;;;;;5074451;28;20465;-68
2022/05/07 09:50:20;;;;;;;2.95;1.70;;;12.60;91.80;;;;;;5075616;28;20536;-68
2022/05/07 09:58:19;;;;;;;2.97;1.92;;;12.20;93.00;;;;;;5075777;28;20038;-65
2022/05/07 10:01:13;;;;;;;2.03;1.65;;;12.10;94.30;;;;;;5058025;28;20035;-64
2022/05/07 10:04:15;;;;;;;2.85;1.75;;;12.10;94.60;;;;;;5080779;28;20019;-66
2022/05/07 10:06:56;;;;;;;2.70;1.43;;;12.10;94.40;;;;;;5074678;28;20032;-69
2022/05/07 10:09:41;;;;;;;1.63;1.25;;;12.00;94.60;;;;;;5063323;28;20329;-69
2022/05/07 10:12:10;;;;;;;2.35;1.25;;;11.90;94.80;;;;;;5074162;28;20029;-66
2022/05/07 10:14:37;;;;;;;1.20;0.90;;;11.70;94.90;;;;;;5081847;28;20020;-67
2022/05/07 10:17:11;;;;;;;2.67;1.30;;;11.60;95.40;;;;;;5075223;28;20039;-69
2022/05/07 10:19:44;;;;;;;3.40;1.70;;;11.50;96.30;;;;;;5078420;28;20020;-69
2022/05/07 10:22:26;;;;;;;2.45;1.80;;;11.50;96.50;;;;;;5077828;28;20055;-66
2022/05/07 10:25:13;;;;;;;2.95;1.92;;;11.40;96.90;;;;;;5077420;28;20458;-70
2022/05/07 10:27:44;;;;;;;2.10;1.40;;;11.30;97.50;;;;;;5076158;28;20035;-70
2022/05/07 10:30:15;;;;;;;2.35;1.80;;;11.40;97.70;;;;;;5080078;28;20043;-65
2022/05/07 10:32:57;;;;;;;3.17;1.77;;;11.50;97.10;;;;;;5076006;28;20070;-66
2022/05/07 10:35:51;;;;;;;2.47;1.70;;;11.50;98.20;;;;;;5076958;28;20450;-70
2022/05/07 10:38:27;;;;;;;2.55;1.63;;;11.30;99.10;;;;;;5065436;22;20056;-65
2022/05/07 10:40:59;;;;;;;4.38;1.95;;;11.30;98.70;;;;;;5053185;28;20400;-65
2022/05/07 10:43:34;;;;;;;4.78;2.00;;;11.30;99.00;;;;;;5055086;28;20020;-65
2022/05/07 10:46:03;;;;;;;4.38;2.10;;;11.30;99.90;;;;;;5056869;28;20025;-68
2022/05/07 10:48:50;;;;;;;3.15;1.73;;;11.20;99.90;;;;;;5057035;28;21039;-68
2022/05/07 10:51:21;;;;;;;4.45;2.15;;;10.90;99.90;;;;;;5056526;28;20056;-68
2022/05/07 10:53:50;;;;;;;3.30;2.10;;;10.70;99.90;;;;;;5056557;28;20052;-68
2022/05/07 10:56:19;;;;;;;4.03;2.22;;;10.60;99.90;;;;;;5055455;28;20125;-65
2022/05/07 10:58:55;;;;;;;4.32;3.38;;;10.60;99.90;;;;;;5048947;28;20446;-65
2022/05/07 11:01:26;;;;;;;3.72;1.85;;;10.50;99.90;;;;;;5054134;28;20032;-65
2022/05/07 11:04:05;;;;;;;7.93;5.15;;;10.40;99.90;;;;;;5054252;28;20035;-66
2022/05/07 11:06:51;;;;;;;10.05;6.63;;;10.50;99.90;;;;;;5054148;28;20025;-66
2022/05/07 11:09:26;;;;;;;6.68;5.43;;;10.60;99.90;;;;;;5040414;28;20025;-65
2022/05/07 11:11:56;;;;;;;3.83;2.70;;;10.60;99.90;;;;;;5046108;28;20249;-65
2022/05/07 11:14:35;;;;;;;5.07;3.10;;;10.60;99.90;;;;;;5043250;28;20101;-69
2022/05/07 11:17:04;;;;;;;7.00;3.75;;;10.60;99.90;;;;;;5043594;28;20047;-70
2022/05/07 11:19:40;;;;;;;5.93;3.10;;;10.70;99.90;;;;;;5033424;28;20040;-69
2022/05/07 11:22:13;;;;;;;3.85;2.55;;;10.70;99.90;;;;;;5062295;28;20082;-69
2022/05/07 11:24:41;;;;;;;3.90;2.50;;;10.70;99.90;;;;;;5062074;28;20028;-65
2022/05/07 11:27:11;;;;;;;3.38;2.50;;;10.70;99.90;;;;;;5063727;28;20028;-69
2022/05/07 11:29:39;;;;;;;7.95;4.53;;;10.70;99.90;;;;;;5063055;28;20081;-68
2022/05/07 11:32:09;;;;;;;5.80;2.92;;;10.60;99.90;;;;;;5062835;28;20044;-68
2022/05/07 11:34:39;;;;;;;3.20;2.15;;;10.40;99.90;;;;;;5061073;28;20103;-68
2022/05/07 11:37:16;;;;;;;7.13;2.67;;;10.40;99.90;;;;;;5061109;28;20494;-66
2022/05/07 11:39:54;;;;;;;4.15;2.63;;;10.40;99.90;;;;;;5060225;28;20025;-66
2022/05/07 11:42:43;;;;;;;4.00;2.20;;;10.40;99.90;;;;;;5057402;28;20474;-65
2022/05/07 11:45:30;;;;;;;3.85;2.35;;;10.30;99.90;;;;;;5037068;28;20062;-68
2022/05/07 11:48:07;;;;;;;4.03;2.10;;;10.30;99.90;;;;;;5044939;28;20051;-67
2022/05/07 11:50:43;;;;;;;2.33;1.50;;;10.20;99.90;;;;;;5049700;28;20038;-69
2022/05/07 11:53:12;;;;;;;2.50;1.67;;;10.30;99.90;;;;;;5051950;28;20017;-64
2022/05/07 11:55:39;;;;;;;2.40;1.80;;;10.20;99.90;;;;;;5053691;28;20024;-65
2022/05/07 11:58:23;;;;;;;4.00;2.20;;;10.10;99.90;;;;;;5045184;28;20393;-65
2022/05/07 12:00:53;;;;;;;5.05;2.08;;;10.00;99.90;;;;;;5048867;28;20061;-68
2022/05/07 12:03:23;;;;;;;3.38;2.10;;;10.00;99.90;;;;;;5032522;28;20361;-68
2022/05/07 12:05:52;;;;;;;3.03;1.95;;;10.00;99.90;;;;;;5054983;28;20624;-69
2022/05/07 12:08:33;;;;;;;3.30;2.00;;;9.80;99.90;;;;;;5052501;28;20153;-68
2022/05/07 12:11:00;;;;;;;5.88;2.20;;;9.80;99.90;;;;;;5058640;28;20016;-65
2022/05/07 12:13:28;;;;;;;2.85;2.10;;;9.70;99.90;;;;;;5043871;28;20053;-64
2022/05/07 12:18:46;;;;;;;3.45;2.17;;;9.90;99.90;;;;;;5051308;28;20082;-64
2022/05/07 12:21:13;;;;;;;3.80;2.33;;;9.90;99.90;;;;;;5058729;28;20096;-65
2022/05/07 12:31:57;;;;;;;3.45;2.25;;;9.50;99.90;;;;;;5054923;28;20155;-69
2022/05/07 12:34:24;;;;;;;3.53;2.10;;;9.40;99.90;;;;;;5060472;28;20212;-64
2022/05/07 12:36:51;;;;;;;4.72;2.10;;;9.40;99.90;;;;;;5058350;28;20029;-65
2022/05/07 12:39:18;;;;;;;3.75;2.00;;;9.40;99.90;;;;;;5053134;28;20083;-64
2022/05/07 12:41:46;;;;;;;6.43;2.38;;;9.40;99.90;;;;;;5058634;28;20032;-65
2022/05/07 12:44:13;;;;;;;3.67;2.33;;;9.30;99.90;;;;;;5051320;28;20116;-68
2022/05/07 12:46:40;;;;;;;5.50;1.70;;;9.20;99.90;;;;;;5054450;28;20052;-64
2022/05/07 12:49:10;;;;;;;2.35;1.80;;;9.20;99.90;;;;;;5048507;28;20025;-68
2022/05/07 12:51:37;;;;;;;3.55;1.90;;;9.20;99.90;;;;;;5042487;28;20021;-68
2022/05/07 12:54:04;;;;;;;4.60;2.20;;;9.10;99.90;;;;;;5048121;28;20025;-65
2022/05/07 12:56:31;;;;;;;3.00;1.80;;;9.00;99.90;;;;;;5041664;28;20028;-69
2022/05/07 12:58:58;;;;;;;2.42;1.65;;;9.00;99.90;;;;;;5051705;28;20033;-66
2022/05/07 13:01:25;;;;;;;4.20;2.03;;;9.00;99.90;;;;;;5055466;28;20017;-65
2022/05/07 13:03:52;;;;;;;3.97;2.20;;;9.10;99.90;;;;;;5058702;28;20017;-65
2022/05/07 13:06:19;;;;;;;9.43;6.25;;;9.10;99.90;;;;;;5051947;28;20095;-68
2022/05/07 13:08:45;;;;;;;20.75;12.30;;;9.00;99.90;;;;;;5056094;28;20710;-65
2022/05/07 13:11:13;;;;;;;12.18;8.27;;;9.00;99.90;;;;;;5046177;28;20025;-69
2022/05/07 13:13:40;;;;;;;9.75;5.35;;;9.00;99.90;;;;;;5049947;28;20028;-68
2022/05/07 13:16:07;;;;;;;6.07;4.20;;;8.80;99.90;;;;;;5051464;28;20667;-65
2022/05/07 13:18:35;;;;;;;7.45;3.35;;;8.70;99.90;;;;;;5065531;28;20044;-66
2022/05/07 13:21:02;;;;;;;6.25;3.70;;;8.70;99.90;;;;;;5055403;28;20127;-69
2022/05/07 13:23:29;;;;;;;6.88;3.78;;;8.60;99.90;;;;;;5049662;28;20039;-70
2022/05/07 13:25:55;;;;;;;7.03;4.47;;;8.80;99.90;;;;;;5052591;28;20383;-64
2022/05/07 13:28:22;;;;;;;7.95;4.20;;;8.90;99.90;;;;;;5060406;28;20082;-68
2022/05/07 13:30:49;;;;;;;7.70;4.18;;;8.80;99.90;;;;;;5060545;28;20056;-67
2022/05/07 13:33:16;;;;;;;8.50;4.03;;;8.70;99.90;;;;;;5060515;28;20016;-65
2022/05/07 13:35:43;;;;;;;5.38;3.80;;;8.70;99.90;;;;;;5063988;28;20027;-68
2022/05/07 13:38:11;;;;;;;7.53;3.70;;;8.70;99.90;;;;;;5046655;28;20037;-67